sensor_id;sensor_type;location;lat;lon;timestamp;P1;durP1;ratioP1;P2;durP2;ratioP2
60312;SDS011;46158;52.850;6.970;2023-06-04T00:01:25;3.22;;;1.85;;
60312;SDS011;46158;52.850;6.970;2023-06-04T00:03:51;1.98;;;1.58;;
60312;SDS011;46158;52.850;6.970;2023-06-04T00:06:18;3.17;;;1.95;;
60312;SDS011;46158;52.850;6.970;2023-06-04T00:08:43;2.95;;;1.80;;
60312;SDS011;46158;52.850;6.970;2023-06-04T00:11:09;2.28;;;1.60;;
60312;SDS011;46158;52.850;6.970;2023-06-04T00:13:35;2.15;;;1.70;;
60312;SDS011;46158;52.850;6.970;2023-06-04T00:16:01;3.95;;;1.90;;
60312;SDS011;46158;52.850;6.970;2023-06-04T00:18:26;5.18;;;1.90;;
60312;SDS011;46158;52.850;6.970;2023-06-04T00:20:52;4.60;;;1.80;;
60312;SDS011;46158;52.850;6.970;2023-06-04T00:23:18;3.22;;;1.63;;
60312;SDS011;46158;52.850;6.970;2023-06-04T00:25:45;3.33;;;1.70;;
60312;SDS011;46158;52.850;6.970;2023-06-04T00:28:10;2.50;;;1.73;;
60312;SDS011;46158;52.850;6.970;2023-06-04T00:30:36;5.15;;;2.00;;
60312;SDS011;46158;52.850;6.970;2023-06-04T00:33:03;3.50;;;1.95;;
60312;SDS011;46158;52.850;6.970;2023-06-04T00:35:28;2.75;;;1.77;;
60312;SDS011;46158;52.850;6.970;2023-06-04T00:37:54;2.55;;;1.70;;
60312;SDS011;46158;52.850;6.970;2023-06-04T00:40:20;4.75;;;1.92;;
60312;SDS011;46158;52.850;6.970;2023-06-04T00:42:46;3.08;;;1.70;;
60312;SDS011;46158;52.850;6.970;2023-06-04T00:45:11;5.72;;;2.05;;
60312;SDS011;46158;52.850;6.970;2023-06-04T00:47:40;3.05;;;2.08;;
60312;SDS011;46158;52.850;6.970;2023-06-04T00:50:06;3.00;;;2.00;;
60312;SDS011;46158;52.850;6.970;2023-06-04T00:52:36;3.17;;;1.80;;
60312;SDS011;46158;52.850;6.970;2023-06-04T00:55:03;2.65;;;1.90;;
60312;SDS011;46158;52.850;6.970;2023-06-04T00:57:28;3.35;;;2.08;;
60312;SDS011;46158;52.850;6.970;2023-06-04T00:59:54;3.28;;;1.83;;
60312;SDS011;46158;52.850;6.970;2023-06-04T01:02:21;4.95;;;1.83;;
60312;SDS011;46158;52.850;6.970;2023-06-04T01:04:53;2.72;;;1.80;;
60312;SDS011;46158;52.850;6.970;2023-06-04T01:07:26;4.97;;;2.10;;
60312;SDS011;46158;52.850;6.970;2023-06-04T01:09:55;4.47;;;2.00;;
60312;SDS011;46158;52.850;6.970;2023-06-04T01:12:21;3.63;;;2.00;;
60312;SDS011;46158;52.850;6.970;2023-06-04T01:14:47;3.22;;;2.00;;
60312;SDS011;46158;52.850;6.970;2023-06-04T01:17:26;3.83;;;2.10;;
60312;SDS011;46158;52.850;6.970;2023-06-04T01:25:12;3.58;;;1.95;;
60312;SDS011;46158;52.850;6.970;2023-06-04T01:27:49;3.67;;;1.90;;
60312;SDS011;46158;52.850;6.970;2023-06-04T01:30:18;5.22;;;2.10;;
60312;SDS011;46158;52.850;6.970;2023-06-04T01:32:48;2.42;;;1.80;;
60312;SDS011;46158;52.850;6.970;2023-06-04T01:35:14;3.95;;;2.00;;
60312;SDS011;46158;52.850;6.970;2023-06-04T01:37:40;4.18;;;2.05;;
60312;SDS011;46158;52.850;6.970;2023-06-04T01:40:06;5.25;;;2.15;;
60312;SDS011;46158;52.850;6.970;2023-06-04T01:42:33;5.18;;;2.30;;
60312;SDS011;46158;52.850;6.970;2023-06-04T01:45:00;5.30;;;2.17;;
60312;SDS011;46158;52.850;6.970;2023-06-04T01:47:25;3.92;;;2.00;;
60312;SDS011;46158;52.850;6.970;2023-06-04T01:49:51;5.88;;;2.25;;
60312;SDS011;46158;52.850;6.970;2023-06-04T01:52:17;7.65;;;2.17;;
60312;SDS011;46158;52.850;6.970;2023-06-04T01:54:42;3.20;;;2.00;;
60312;SDS011;46158;52.850;6.970;2023-06-04T01:57:08;5.50;;;2.20;;
60312;SDS011;46158;52.850;6.970;2023-06-04T01:59:37;5.22;;;2.10;;
60312;SDS011;46158;52.850;6.970;2023-06-04T02:02:03;6.38;;;2.10;;
60312;SDS011;46158;52.850;6.970;2023-06-04T02:04:30;6.57;;;2.40;;
60312;SDS011;46158;52.850;6.970;2023-06-04T02:06:55;6.82;;;2.03;;
60312;SDS011;46158;52.850;6.970;2023-06-04T02:09:24;3.65;;;2.05;;
60312;SDS011;46158;52.850;6.970;2023-06-04T02:11:51;4.70;;;2.22;;
60312;SDS011;46158;52.850;6.970;2023-06-04T02:14:16;7.30;;;2.40;;
60312;SDS011;46158;52.850;6.970;2023-06-04T02:16:42;2.88;;;1.88;;
60312;SDS011;46158;52.850;6.970;2023-06-04T02:19:07;5.60;;;2.22;;
60312;SDS011;46158;52.850;6.970;2023-06-04T02:21:33;7.65;;;2.40;;
60312;SDS011;46158;52.850;6.970;2023-06-04T02:24:00;6.32;;;2.10;;
60312;SDS011;46158;52.850;6.970;2023-06-04T02:26:26;6.68;;;2.10;;
60312;SDS011;46158;52.850;6.970;2023-06-04T02:28:51;4.78;;;2.30;;
60312;SDS011;46158;52.850;6.970;2023-06-04T02:31:17;6.38;;;2.33;;
60312;SDS011;46158;52.850;6.970;2023-06-04T02:33:43;5.95;;;2.35;;
60312;SDS011;46158;52.850;6.970;2023-06-04T02:36:08;3.83;;;2.15;;
60312;SDS011;46158;52.850;6.970;2023-06-04T02:38:34;3.80;;;2.10;;
60312;SDS011;46158;52.850;6.970;2023-06-04T02:41:00;6.47;;;2.33;;
60312;SDS011;46158;52.850;6.970;2023-06-04T02:43:26;4.53;;;2.10;;
60312;SDS011;46158;52.850;6.970;2023-06-04T02:45:51;5.20;;;2.28;;
60312;SDS011;46158;52.850;6.970;2023-06-04T02:48:17;3.47;;;2.10;;
60312;SDS011;46158;52.850;6.970;2023-06-04T02:50:43;5.45;;;2.20;;
60312;SDS011;46158;52.850;6.970;2023-06-04T02:53:09;8.02;;;2.22;;
60312;SDS011;46158;52.850;6.970;2023-06-04T02:55:34;5.13;;;2.17;;
60312;SDS011;46158;52.850;6.970;2023-06-04T02:58:01;6.40;;;2.33;;
60312;SDS011;46158;52.850;6.970;2023-06-04T03:00:28;4.85;;;2.20;;
60312;SDS011;46158;52.850;6.970;2023-06-04T03:02:54;4.93;;;2.30;;
60312;SDS011;46158;52.850;6.970;2023-06-04T03:05:26;5.13;;;2.40;;
60312;SDS011;46158;52.850;6.970;2023-06-04T03:07:52;5.57;;;2.30;;
60312;SDS011;46158;52.850;6.970;2023-06-04T03:10:21;8.40;;;2.40;;
60312;SDS011;46158;52.850;6.970;2023-06-04T03:12:47;7.15;;;2.20;;
60312;SDS011;46158;52.850;6.970;2023-06-04T03:15:12;7.40;;;2.47;;
60312;SDS011;46158;52.850;6.970;2023-06-04T03:17:38;6.47;;;2.17;;
60312;SDS011;46158;52.850;6.970;2023-06-04T03:20:05;4.65;;;2.10;;
60312;SDS011;46158;52.850;6.970;2023-06-04T03:22:32;6.25;;;2.35;;
60312;SDS011;46158;52.850;6.970;2023-06-04T03:25:00;4.60;;;2.03;;
60312;SDS011;46158;52.850;6.970;2023-06-04T03:27:26;5.82;;;2.28;;
60312;SDS011;46158;52.850;6.970;2023-06-04T03:29:52;5.63;;;2.17;;
60312;SDS011;46158;52.850;6.970;2023-06-04T03:32:18;5.20;;;2.30;;
60312;SDS011;46158;52.850;6.970;2023-06-04T03:34:44;4.18;;;2.10;;
60312;SDS011;46158;52.850;6.970;2023-06-04T03:37:09;6.95;;;2.50;;
60312;SDS011;46158;52.850;6.970;2023-06-04T03:39:35;5.68;;;2.30;;
60312;SDS011;46158;52.850;6.970;2023-06-04T03:42:01;6.53;;;2.20;;
60312;SDS011;46158;52.850;6.970;2023-06-04T03:44:27;5.07;;;1.95;;
60312;SDS011;46158;52.850;6.970;2023-06-04T03:46:53;4.85;;;2.20;;
60312;SDS011;46158;52.850;6.970;2023-06-04T03:49:18;4.65;;;2.08;;
60312;SDS011;46158;52.850;6.970;2023-06-04T03:51:44;8.05;;;2.30;;
60312;SDS011;46158;52.850;6.970;2023-06-04T03:54:10;4.47;;;2.25;;
60312;SDS011;46158;52.850;6.970;2023-06-04T03:56:37;5.03;;;2.20;;
60312;SDS011;46158;52.850;6.970;2023-06-04T03:59:03;3.63;;;2.00;;
60312;SDS011;46158;52.850;6.970;2023-06-04T04:01:29;5.00;;;2.00;;
60312;SDS011;46158;52.850;6.970;2023-06-04T04:03:55;6.07;;;2.20;;
60312;SDS011;46158;52.850;6.970;2023-06-04T04:06:20;4.88;;;2.08;;
60312;SDS011;46158;52.850;6.970;2023-06-04T04:08:46;3.10;;;2.10;;
60312;SDS011;46158;52.850;6.970;2023-06-04T04:11:16;5.68;;;2.40;;
60312;SDS011;46158;52.850;6.970;2023-06-04T04:13:44;5.45;;;2.20;;
60312;SDS011;46158;52.850;6.970;2023-06-04T04:16:11;4.95;;;2.20;;
60312;SDS011;46158;52.850;6.970;2023-06-04T04:18:37;5.68;;;2.30;;
60312;SDS011;46158;52.850;6.970;2023-06-04T04:21:03;6.78;;;2.40;;
60312;SDS011;46158;52.850;6.970;2023-06-04T04:23:29;4.38;;;2.08;;
60312;SDS011;46158;52.850;6.970;2023-06-04T04:25:57;4.43;;;2.25;;
60312;SDS011;46158;52.850;6.970;2023-06-04T04:28:24;6.25;;;2.20;;
60312;SDS011;46158;52.850;6.970;2023-06-04T04:30:56;4.67;;;2.20;;
60312;SDS011;46158;52.850;6.970;2023-06-04T04:33:22;5.28;;;2.25;;
60312;SDS011;46158;52.850;6.970;2023-06-04T04:35:49;5.88;;;2.30;;
60312;SDS011;46158;52.850;6.970;2023-06-04T04:38:16;4.90;;;2.20;;
60312;SDS011;46158;52.850;6.970;2023-06-04T04:40:44;4.60;;;2.22;;
60312;SDS011;46158;52.850;6.970;2023-06-04T04:43:12;4.53;;;2.10;;
60312;SDS011;46158;52.850;6.970;2023-06-04T04:45:38;4.85;;;2.03;;
60312;SDS011;46158;52.850;6.970;2023-06-04T04:48:04;3.83;;;2.15;;
60312;SDS011;46158;52.850;6.970;2023-06-04T04:50:30;6.97;;;2.20;;
60312;SDS011;46158;52.850;6.970;2023-06-04T04:52:57;4.70;;;2.10;;
60312;SDS011;46158;52.850;6.970;2023-06-04T04:55:23;6.63;;;2.20;;
60312;SDS011;46158;52.850;6.970;2023-06-04T04:57:49;4.00;;;2.20;;
60312;SDS011;46158;52.850;6.970;2023-06-04T05:00:15;3.67;;;2.10;;
60312;SDS011;46158;52.850;6.970;2023-06-04T05:02:42;4.47;;;1.98;;
60312;SDS011;46158;52.850;6.970;2023-06-04T05:05:08;7.15;;;2.20;;
60312;SDS011;46158;52.850;6.970;2023-06-04T05:07:35;5.63;;;2.30;;
60312;SDS011;46158;52.850;6.970;2023-06-04T05:10:01;5.85;;;2.30;;
60312;SDS011;46158;52.850;6.970;2023-06-04T05:12:29;4.35;;;2.20;;
60312;SDS011;46158;52.850;6.970;2023-06-04T05:14:55;3.55;;;2.10;;
60312;SDS011;46158;52.850;6.970;2023-06-04T05:17:21;4.70;;;2.20;;
60312;SDS011;46158;52.850;6.970;2023-06-04T05:19:55;6.50;;;2.10;;
60312;SDS011;46158;52.850;6.970;2023-06-04T05:22:36;6.03;;;2.25;;
60312;SDS011;46158;52.850;6.970;2023-06-04T05:25:02;5.78;;;2.22;;
60312;SDS011;46158;52.850;6.970;2023-06-04T05:27:28;3.92;;;2.30;;
60312;SDS011;46158;52.850;6.970;2023-06-04T05:29:56;7.35;;;2.35;;
60312;SDS011;46158;52.850;6.970;2023-06-04T05:32:22;4.30;;;2.00;;
60312;SDS011;46158;52.850;6.970;2023-06-04T05:34:48;5.50;;;2.30;;
60312;SDS011;46158;52.850;6.970;2023-06-04T05:37:14;6.53;;;2.15;;
60312;SDS011;46158;52.850;6.970;2023-06-04T05:39:41;6.50;;;2.10;;
60312;SDS011;46158;52.850;6.970;2023-06-04T05:42:10;4.22;;;2.22;;
60312;SDS011;46158;52.850;6.970;2023-06-04T05:44:36;3.92;;;2.10;;
60312;SDS011;46158;52.850;6.970;2023-06-04T05:47:01;4.95;;;2.15;;
60312;SDS011;46158;52.850;6.970;2023-06-04T05:49:27;3.20;;;1.90;;
60312;SDS011;46158;52.850;6.970;2023-06-04T05:51:53;4.50;;;1.95;;
60312;SDS011;46158;52.850;6.970;2023-06-04T05:54:18;4.78;;;2.08;;
60312;SDS011;46158;52.850;6.970;2023-06-04T05:56:44;3.58;;;2.08;;
60312;SDS011;46158;52.850;6.970;2023-06-04T05:59:10;6.35;;;2.30;;
60312;SDS011;46158;52.850;6.970;2023-06-04T06:01:36;7.20;;;2.40;;
60312;SDS011;46158;52.850;6.970;2023-06-04T06:04:03;6.93;;;2.30;;
60312;SDS011;46158;52.850;6.970;2023-06-04T06:06:29;6.97;;;2.00;;
60312;SDS011;46158;52.850;6.970;2023-06-04T06:08:55;5.60;;;2.10;;
60312;SDS011;46158;52.850;6.970;2023-06-04T06:11:21;5.90;;;2.50;;
60312;SDS011;46158;52.850;6.970;2023-06-04T06:13:47;4.45;;;2.08;;
60312;SDS011;46158;52.850;6.970;2023-06-04T06:16:12;6.35;;;2.33;;
60312;SDS011;46158;52.850;6.970;2023-06-04T06:18:38;4.90;;;2.22;;
60312;SDS011;46158;52.850;6.970;2023-06-04T06:21:04;3.47;;;2.30;;
60312;SDS011;46158;52.850;6.970;2023-06-04T06:23:30;7.47;;;2.40;;
60312;SDS011;46158;52.850;6.970;2023-06-04T06:25:56;5.07;;;2.10;;
60312;SDS011;46158;52.850;6.970;2023-06-04T06:28:22;8.75;;;3.03;;
60312;SDS011;46158;52.850;6.970;2023-06-04T06:30:48;11.05;;;3.70;;
60312;SDS011;46158;52.850;6.970;2023-06-04T06:33:15;14.48;;;3.50;;
60312;SDS011;46158;52.850;6.970;2023-06-04T06:35:41;14.23;;;3.97;;
60312;SDS011;46158;52.850;6.970;2023-06-04T06:38:07;14.43;;;3.92;;
60312;SDS011;46158;52.850;6.970;2023-06-04T06:40:32;11.25;;;3.13;;
60312;SDS011;46158;52.850;6.970;2023-06-04T06:42:58;10.57;;;3.40;;
60312;SDS011;46158;52.850;6.970;2023-06-04T06:45:24;12.52;;;2.80;;
60312;SDS011;46158;52.850;6.970;2023-06-04T06:47:50;9.20;;;2.67;;
60312;SDS011;46158;52.850;6.970;2023-06-04T06:50:16;9.00;;;2.60;;
60312;SDS011;46158;52.850;6.970;2023-06-04T06:52:42;12.35;;;2.83;;
60312;SDS011;46158;52.850;6.970;2023-06-04T06:55:07;12.32;;;3.50;;
60312;SDS011;46158;52.850;6.970;2023-06-04T06:57:34;10.48;;;2.92;;
60312;SDS011;46158;52.850;6.970;2023-06-04T07:00:01;7.32;;;2.50;;
60312;SDS011;46158;52.850;6.970;2023-06-04T07:02:28;11.77;;;2.80;;
60312;SDS011;46158;52.850;6.970;2023-06-04T07:04:57;11.23;;;3.00;;
60312;SDS011;46158;52.850;6.970;2023-06-04T07:07:23;5.80;;;2.40;;
60312;SDS011;46158;52.850;6.970;2023-06-04T07:09:51;10.48;;;2.67;;
60312;SDS011;46158;52.850;6.970;2023-06-04T07:12:17;11.07;;;2.80;;
60312;SDS011;46158;52.850;6.970;2023-06-04T07:14:43;6.47;;;2.50;;
60312;SDS011;46158;52.850;6.970;2023-06-04T07:17:09;14.68;;;3.10;;
60312;SDS011;46158;52.850;6.970;2023-06-04T07:19:34;13.48;;;3.03;;
60312;SDS011;46158;52.850;6.970;2023-06-04T07:22:00;10.38;;;2.88;;
60312;SDS011;46158;52.850;6.970;2023-06-04T07:24:26;9.18;;;2.63;;
60312;SDS011;46158;52.850;6.970;2023-06-04T07:26:52;12.90;;;2.97;;
60312;SDS011;46158;52.850;6.970;2023-06-04T07:29:18;9.15;;;2.58;;
60312;SDS011;46158;52.850;6.970;2023-06-04T07:31:45;11.75;;;2.80;;
60312;SDS011;46158;52.850;6.970;2023-06-04T07:34:11;9.05;;;2.80;;
60312;SDS011;46158;52.850;6.970;2023-06-04T07:36:36;9.30;;;2.50;;
60312;SDS011;46158;52.850;6.970;2023-06-04T07:39:02;10.02;;;2.55;;
60312;SDS011;46158;52.850;6.970;2023-06-04T07:41:32;11.75;;;2.70;;
60312;SDS011;46158;52.850;6.970;2023-06-04T07:43:59;9.50;;;2.80;;
60312;SDS011;46158;52.850;6.970;2023-06-04T07:46:25;12.32;;;2.80;;
60312;SDS011;46158;52.850;6.970;2023-06-04T07:48:52;9.85;;;2.75;;
60312;SDS011;46158;52.850;6.970;2023-06-04T07:51:17;7.53;;;2.50;;
60312;SDS011;46158;52.850;6.970;2023-06-04T07:53:44;12.18;;;2.70;;
60312;SDS011;46158;52.850;6.970;2023-06-04T07:56:10;8.93;;;2.50;;
60312;SDS011;46158;52.850;6.970;2023-06-04T07:58:36;11.35;;;2.88;;
60312;SDS011;46158;52.850;6.970;2023-06-04T08:01:02;14.00;;;3.00;;
60312;SDS011;46158;52.850;6.970;2023-06-04T08:03:28;12.13;;;2.70;;
60312;SDS011;46158;52.850;6.970;2023-06-04T08:05:53;10.73;;;3.08;;
60312;SDS011;46158;52.850;6.970;2023-06-04T08:08:19;9.40;;;2.70;;
60312;SDS011;46158;52.850;6.970;2023-06-04T08:10:45;9.75;;;2.47;;
60312;SDS011;46158;52.850;6.970;2023-06-04T08:13:11;10.57;;;2.58;;
60312;SDS011;46158;52.850;6.970;2023-06-04T08:15:36;9.13;;;2.50;;
60312;SDS011;46158;52.850;6.970;2023-06-04T08:18:02;6.25;;;2.38;;
60312;SDS011;46158;52.850;6.970;2023-06-04T08:20:28;8.82;;;2.60;;
60312;SDS011;46158;52.850;6.970;2023-06-04T08:22:54;10.57;;;2.60;;
60312;SDS011;46158;52.850;6.970;2023-06-04T08:25:20;10.07;;;2.55;;
60312;SDS011;46158;52.850;6.970;2023-06-04T08:27:46;10.48;;;2.67;;
60312;SDS011;46158;52.850;6.970;2023-06-04T08:30:11;5.70;;;2.38;;
60312;SDS011;46158;52.850;6.970;2023-06-04T08:32:37;10.75;;;2.63;;
60312;SDS011;46158;52.850;6.970;2023-06-04T08:35:05;9.13;;;2.65;;
60312;SDS011;46158;52.850;6.970;2023-06-04T08:37:31;6.75;;;2.35;;
60312;SDS011;46158;52.850;6.970;2023-06-04T08:39:57;8.95;;;2.50;;
60312;SDS011;46158;52.850;6.970;2023-06-04T08:42:30;8.70;;;2.45;;
60312;SDS011;46158;52.850;6.970;2023-06-04T08:44:59;8.63;;;2.50;;
60312;SDS011;46158;52.850;6.970;2023-06-04T08:47:26;10.88;;;2.50;;
60312;SDS011;46158;52.850;6.970;2023-06-04T08:49:54;8.30;;;2.70;;
60312;SDS011;46158;52.850;6.970;2023-06-04T08:52:33;10.45;;;2.70;;
60312;SDS011;46158;52.850;6.970;2023-06-04T08:55:00;10.20;;;2.50;;
60312;SDS011;46158;52.850;6.970;2023-06-04T08:57:27;8.07;;;2.60;;
60312;SDS011;46158;52.850;6.970;2023-06-04T08:59:56;9.23;;;2.55;;
60312;SDS011;46158;52.850;6.970;2023-06-04T09:02:22;12.10;;;2.60;;
60312;SDS011;46158;52.850;6.970;2023-06-04T09:04:51;8.45;;;2.60;;
60312;SDS011;46158;52.850;6.970;2023-06-04T09:07:18;6.00;;;2.22;;
60312;SDS011;46158;52.850;6.970;2023-06-04T09:09:45;11.77;;;2.65;;
60312;SDS011;46158;52.850;6.970;2023-06-04T09:12:15;8.18;;;2.53;;
60312;SDS011;46158;52.850;6.970;2023-06-04T09:14:47;9.00;;;2.30;;
60312;SDS011;46158;52.850;6.970;2023-06-04T09:17:13;9.45;;;2.55;;
60312;SDS011;46158;52.850;6.970;2023-06-04T09:19:40;12.32;;;2.40;;
60312;SDS011;46158;52.850;6.970;2023-06-04T09:22:05;10.30;;;2.65;;
60312;SDS011;46158;52.850;6.970;2023-06-04T09:24:44;10.15;;;2.70;;
60312;SDS011;46158;52.850;6.970;2023-06-04T09:27:12;6.28;;;2.33;;
60312;SDS011;46158;52.850;6.970;2023-06-04T09:29:49;8.20;;;2.50;;
60312;SDS011;46158;52.850;6.970;2023-06-04T09:32:22;9.50;;;2.47;;
60312;SDS011;46158;52.850;6.970;2023-06-04T09:34:48;7.00;;;2.15;;
60312;SDS011;46158;52.850;6.970;2023-06-04T09:37:15;7.07;;;2.40;;
60312;SDS011;46158;52.850;6.970;2023-06-04T09:39:43;12.32;;;2.67;;
60312;SDS011;46158;52.850;6.970;2023-06-04T09:42:09;8.68;;;2.53;;
60312;SDS011;46158;52.850;6.970;2023-06-04T09:44:44;13.73;;;2.63;;
60312;SDS011;46158;52.850;6.970;2023-06-04T09:47:11;14.80;;;3.25;;
60312;SDS011;46158;52.850;6.970;2023-06-04T09:49:43;19.40;;;3.65;;
60312;SDS011;46158;52.850;6.970;2023-06-04T09:52:15;15.77;;;3.50;;
60312;SDS011;46158;52.850;6.970;2023-06-04T09:54:41;15.35;;;3.40;;
60312;SDS011;46158;52.850;6.970;2023-06-04T09:57:17;18.67;;;3.70;;
60312;SDS011;46158;52.850;6.970;2023-06-04T09:59:49;17.98;;;3.97;;
60312;SDS011;46158;52.850;6.970;2023-06-04T10:02:19;19.55;;;4.18;;
60312;SDS011;46158;52.850;6.970;2023-06-04T10:04:48;19.58;;;4.10;;
60312;SDS011;46158;52.850;6.970;2023-06-04T10:07:27;18.40;;;4.05;;
60312;SDS011;46158;52.850;6.970;2023-06-04T10:09:53;16.30;;;3.90;;
60312;SDS011;46158;52.850;6.970;2023-06-04T10:12:24;18.75;;;4.25;;
60312;SDS011;46158;52.850;6.970;2023-06-04T10:14:57;18.75;;;4.18;;
60312;SDS011;46158;52.850;6.970;2023-06-04T10:17:31;18.20;;;4.15;;
60312;SDS011;46158;52.850;6.970;2023-06-04T10:19:58;22.98;;;4.32;;
60312;SDS011;46158;52.850;6.970;2023-06-04T10:22:29;17.85;;;4.00;;
60312;SDS011;46158;52.850;6.970;2023-06-04T10:24:55;19.55;;;4.45;;
60312;SDS011;46158;52.850;6.970;2023-06-04T10:27:22;16.35;;;4.25;;
60312;SDS011;46158;52.850;6.970;2023-06-04T10:29:49;17.75;;;4.20;;
60312;SDS011;46158;52.850;6.970;2023-06-04T10:32:15;18.30;;;4.20;;
60312;SDS011;46158;52.850;6.970;2023-06-04T10:34:42;19.65;;;4.47;;
60312;SDS011;46158;52.850;6.970;2023-06-04T10:37:21;20.85;;;4.32;;
60312;SDS011;46158;52.850;6.970;2023-06-04T10:39:51;18.65;;;4.03;;
60312;SDS011;46158;52.850;6.970;2023-06-04T10:42:18;19.10;;;4.63;;
60312;SDS011;46158;52.850;6.970;2023-06-04T10:44:47;19.52;;;4.53;;
60312;SDS011;46158;52.850;6.970;2023-06-04T10:47:35;21.17;;;4.72;;
60312;SDS011;46158;52.850;6.970;2023-06-04T10:52:59;18.00;;;4.38;;
60312;SDS011;46158;52.850;6.970;2023-06-04T10:55:24;21.20;;;4.45;;
60312;SDS011;46158;52.850;6.970;2023-06-04T10:57:51;16.77;;;4.20;;
60312;SDS011;46158;52.850;6.970;2023-06-04T11:00:18;20.00;;;4.72;;
60312;SDS011;46158;52.850;6.970;2023-06-04T11:02:53;21.20;;;4.90;;
60312;SDS011;46158;52.850;6.970;2023-06-04T11:05:32;20.83;;;4.90;;
60312;SDS011;46158;52.850;6.970;2023-06-04T11:08:03;17.45;;;4.40;;
60312;SDS011;46158;52.850;6.970;2023-06-04T11:10:32;19.08;;;4.78;;
60312;SDS011;46158;52.850;6.970;2023-06-04T11:12:59;17.60;;;4.50;;
60312;SDS011;46158;52.850;6.970;2023-06-04T11:15:26;19.75;;;4.22;;
60312;SDS011;46158;52.850;6.970;2023-06-04T11:17:54;19.40;;;4.40;;
60312;SDS011;46158;52.850;6.970;2023-06-04T11:20:23;19.08;;;4.55;;
60312;SDS011;46158;52.850;6.970;2023-06-04T11:22:55;17.02;;;4.32;;
60312;SDS011;46158;52.850;6.970;2023-06-04T11:25:23;17.38;;;4.53;;
60312;SDS011;46158;52.850;6.970;2023-06-04T11:27:52;18.83;;;4.68;;
60312;SDS011;46158;52.850;6.970;2023-06-04T11:30:19;17.92;;;4.38;;
60312;SDS011;46158;52.850;6.970;2023-06-04T11:32:45;21.38;;;4.78;;
60312;SDS011;46158;52.850;6.970;2023-06-04T11:35:11;19.42;;;4.50;;
60312;SDS011;46158;52.850;6.970;2023-06-04T11:37:37;18.40;;;4.32;;
60312;SDS011;46158;52.850;6.970;2023-06-04T11:40:16;17.45;;;4.05;;
60312;SDS011;46158;52.850;6.970;2023-06-04T11:42:44;14.98;;;3.72;;
60312;SDS011;46158;52.850;6.970;2023-06-04T11:45:15;17.08;;;4.10;;
60312;SDS011;46158;52.850;6.970;2023-06-04T11:50:17;17.00;;;4.25;;
60312;SDS011;46158;52.850;6.970;2023-06-04T11:52:43;14.60;;;3.85;;
60312;SDS011;46158;52.850;6.970;2023-06-04T11:55:09;15.93;;;4.00;;
60312;SDS011;46158;52.850;6.970;2023-06-04T11:57:37;17.60;;;4.00;;
60312;SDS011;46158;52.850;6.970;2023-06-04T12:00:09;17.08;;;4.00;;
60312;SDS011;46158;52.850;6.970;2023-06-04T12:02:50;16.70;;;3.90;;
60312;SDS011;46158;52.850;6.970;2023-06-04T12:05:21;18.83;;;4.20;;
60312;SDS011;46158;52.850;6.970;2023-06-04T12:08:03;16.45;;;3.88;;
60312;SDS011;46158;52.850;6.970;2023-06-04T12:10:36;15.15;;;3.70;;
60312;SDS011;46158;52.850;6.970;2023-06-04T12:13:03;18.45;;;4.45;;
60312;SDS011;46158;52.850;6.970;2023-06-04T12:15:29;15.95;;;3.95;;
60312;SDS011;46158;52.850;6.970;2023-06-04T12:17:54;16.83;;;3.97;;
60312;SDS011;46158;52.850;6.970;2023-06-04T12:20:36;14.30;;;3.90;;
60312;SDS011;46158;52.850;6.970;2023-06-04T12:23:03;13.85;;;3.47;;
60312;SDS011;46158;52.850;6.970;2023-06-04T12:25:31;17.85;;;4.05;;
60312;SDS011;46158;52.850;6.970;2023-06-04T12:27:57;15.15;;;3.85;;
60312;SDS011;46158;52.850;6.970;2023-06-04T12:30:33;15.07;;;3.67;;
60312;SDS011;46158;52.850;6.970;2023-06-04T12:33:01;15.57;;;3.65;;
60312;SDS011;46158;52.850;6.970;2023-06-04T12:35:27;16.08;;;3.78;;
60312;SDS011;46158;52.850;6.970;2023-06-04T12:37:58;15.18;;;3.47;;
60312;SDS011;46158;52.850;6.970;2023-06-04T12:40:25;13.80;;;3.60;;
60312;SDS011;46158;52.850;6.970;2023-06-04T12:42:54;12.35;;;3.47;;
60312;SDS011;46158;52.850;6.970;2023-06-04T12:45:20;13.48;;;3.33;;
60312;SDS011;46158;52.850;6.970;2023-06-04T12:47:46;14.27;;;3.67;;
60312;SDS011;46158;52.850;6.970;2023-06-04T12:50:12;15.25;;;3.80;;
60312;SDS011;46158;52.850;6.970;2023-06-04T12:52:38;16.35;;;3.70;;
60312;SDS011;46158;52.850;6.970;2023-06-04T12:57:50;11.77;;;3.45;;
60312;SDS011;46158;52.850;6.970;2023-06-04T13:00:16;14.38;;;3.60;;
60312;SDS011;46158;52.850;6.970;2023-06-04T13:02:42;10.07;;;3.30;;
60312;SDS011;46158;52.850;6.970;2023-06-04T13:05:07;12.57;;;3.05;;
60312;SDS011;46158;52.850;6.970;2023-06-04T13:07:33;13.63;;;3.20;;
60312;SDS011;46158;52.850;6.970;2023-06-04T13:09:59;14.20;;;3.17;;
60312;SDS011;46158;52.850;6.970;2023-06-04T13:12:25;10.50;;;3.05;;
60312;SDS011;46158;52.850;6.970;2023-06-04T13:14:51;12.60;;;2.90;;
60312;SDS011;46158;52.850;6.970;2023-06-04T13:17:17;12.18;;;3.20;;
60312;SDS011;46158;52.850;6.970;2023-06-04T13:19:46;11.65;;;3.05;;
60312;SDS011;46158;52.850;6.970;2023-06-04T13:22:12;10.88;;;3.05;;
60312;SDS011;46158;52.850;6.970;2023-06-04T13:24:39;8.48;;;2.80;;
60312;SDS011;46158;52.850;6.970;2023-06-04T13:27:05;9.27;;;2.70;;
60312;SDS011;46158;52.850;6.970;2023-06-04T13:29:31;8.35;;;2.50;;
60312;SDS011;46158;52.850;6.970;2023-06-04T13:31:58;9.82;;;2.67;;
60312;SDS011;46158;52.850;6.970;2023-06-04T13:34:24;10.77;;;3.05;;
60312;SDS011;46158;52.850;6.970;2023-06-04T13:36:51;8.25;;;2.70;;
60312;SDS011;46158;52.850;6.970;2023-06-04T13:39:17;10.93;;;2.90;;
60312;SDS011;46158;52.850;6.970;2023-06-04T13:41:42;6.05;;;2.40;;
60312;SDS011;46158;52.850;6.970;2023-06-04T13:44:08;9.77;;;2.85;;
60312;SDS011;46158;52.850;6.970;2023-06-04T13:46:34;8.13;;;2.53;;
60312;SDS011;46158;52.850;6.970;2023-06-04T13:49:09;6.50;;;2.30;;
60312;SDS011;46158;52.850;6.970;2023-06-04T13:51:35;8.88;;;2.65;;
60312;SDS011;46158;52.850;6.970;2023-06-04T13:54:01;8.52;;;2.60;;
60312;SDS011;46158;52.850;6.970;2023-06-04T13:56:31;7.55;;;2.85;;
60312;SDS011;46158;52.850;6.970;2023-06-04T13:58:56;5.80;;;2.35;;
60312;SDS011;46158;52.850;6.970;2023-06-04T14:01:22;7.00;;;2.42;;
60312;SDS011;46158;52.850;6.970;2023-06-04T14:03:48;12.32;;;2.60;;
60312;SDS011;46158;52.850;6.970;2023-06-04T14:06:14;6.75;;;2.47;;
60312;SDS011;46158;52.850;6.970;2023-06-04T14:08:39;10.65;;;2.75;;
60312;SDS011;46158;52.850;6.970;2023-06-04T14:11:05;8.50;;;2.42;;
60312;SDS011;46158;52.850;6.970;2023-06-04T14:13:32;5.85;;;2.40;;
60312;SDS011;46158;52.850;6.970;2023-06-04T14:16:04;7.72;;;2.50;;
60312;SDS011;46158;52.850;6.970;2023-06-04T14:18:30;6.90;;;2.38;;
60312;SDS011;46158;52.850;6.970;2023-06-04T14:20:56;8.80;;;2.65;;
60312;SDS011;46158;52.850;6.970;2023-06-04T14:23:21;6.63;;;2.67;;
60312;SDS011;46158;52.850;6.970;2023-06-04T14:25:47;6.53;;;2.20;;
60312;SDS011;46158;52.850;6.970;2023-06-04T14:28:13;4.97;;;2.22;;
60312;SDS011;46158;52.850;6.970;2023-06-04T14:30:40;6.60;;;2.50;;
60312;SDS011;46158;52.850;6.970;2023-06-04T14:33:06;6.50;;;2.20;;
60312;SDS011;46158;52.850;6.970;2023-06-04T14:35:32;6.75;;;2.42;;
60312;SDS011;46158;52.850;6.970;2023-06-04T14:37:58;6.43;;;2.40;;
60312;SDS011;46158;52.850;6.970;2023-06-04T14:40:24;4.55;;;2.05;;
60312;SDS011;46158;52.850;6.970;2023-06-04T14:42:50;8.30;;;2.50;;
60312;SDS011;46158;52.850;6.970;2023-06-04T14:45:16;5.88;;;2.33;;
60312;SDS011;46158;52.850;6.970;2023-06-04T14:47:42;5.28;;;2.30;;
60312;SDS011;46158;52.850;6.970;2023-06-04T14:50:08;5.05;;;2.22;;
60312;SDS011;46158;52.850;6.970;2023-06-04T14:52:34;6.60;;;2.30;;
60312;SDS011;46158;52.850;6.970;2023-06-04T14:55:00;6.40;;;2.30;;
60312;SDS011;46158;52.850;6.970;2023-06-04T14:57:26;7.85;;;2.38;;